Řízení letového provozu České republiky
Letiste: LKPD Aktualizace: 19.02.2018 11:50:08  UTC
 METAR LKPD 19.02. 11:00 ...
METAR LKPD 191100Z 09005KT CAVOK 01/M05 Q1022 NOSIG=
 TAF LKPD 19.02. 05:00 ...
TAF LKPD 190500Z 1906/2006 VRB02KT CAVOK      BECMG 1908/1910 14006KT      TEMPO 1911/1919 BKN040      BECMG 1920/1922 VRB02KT=